MSC Turchia — A8IL9 — position and weather

sailwx.info

Track history (hours):
 
Tides and Currents Weather Stations Pressure Air Temp Water Temp Dewpoint Dewpoint Depression Visibility Wind Speed Wind Dir Waves Ship Positions

MSC Turchia

Last reported at 2014-Oct-30 08:08 UTC. Time now 2014-Oct-30 13:49 UTC.
Position N 36°28' E 014°28'.

Length 276 m; beam 40 m; draft 14 m.

Type: Ship (hazmat cat D). MMSI: 636091212.

Date/timePositionNaut miles runAvg speedWind from/ knotsBaromVisibWave heightAir tempDewpointWater temp
2014-Oct-30 08:08N 36°28' E 014°28'1017.0
2014-Oct-30 07:33N 36°31' E 014°17'1716.9
2014-Oct-30 06:33N 36°37' E 013°57'24315.8
2014-Oct-29 15:10N 38°42' E 009°34'915.7
2014-Oct-29 14:33N 38°49' E 009°26'1616.3
2014-Oct-29 13:33N 39°01' E 009°13'1212.4
2014-Oct-29 12:33N 39°12' E 009°05'1 0.8
2014-Oct-29 11:33N 39°13' E 009°04'0 0.0
2014-Oct-29 10:32N 39°13' E 009°04'0 0.0
2014-Oct-29 09:32N 39°13' E 009°04'0 0.0
2014-Oct-29 08:32N 39°13' E 009°04'0 0.0
2014-Oct-29 07:32N 39°13' E 009°04'0 0.0
2014-Oct-29 06:32N 39°13' E 009°04'0 0.0
2014-Oct-29 05:32N 39°13' E 009°04'0 0.0
2014-Oct-29 04:32N 39°13' E 009°04'0 0.0
2014-Oct-29 03:32N 39°13' E 009°04'0 0.0
2014-Oct-29 02:32N 39°13' E 009°04'0 0.0
2014-Oct-29 01:32N 39°13' E 009°04'0 0.0
2014-Oct-29 00:32N 39°13' E 009°04'0 0.0
2014-Oct-28 23:32N 39°13' E 009°04'0 0.0
2014-Oct-28 22:32N 39°13' E 009°04'0 0.0
2014-Oct-28 21:32N 39°13' E 009°04'0 0.0
2014-Oct-28 20:32N 39°13' E 009°04'0 0.0
2014-Oct-28 19:32N 39°13' E 009°04'0 0.0
2014-Oct-28 18:32N 39°13' E 009°04'0 0.0
2014-Oct-28 17:32N 39°13' E 009°04'4 3.8
2014-Oct-28 16:33N 39°09' E 009°06'1212.0
2014-Oct-28 15:33N 38°57' E 009°06'1414.2
2014-Oct-28 14:33N 38°47' E 008°53'1413.6
2014-Oct-28 13:33N 38°40' E 008°38'2214.4
2014-Oct-28 12:03N 38°35' E 008°11'30215.2
2014-Oct-27 16:08N 37°16' E 002°01'915.9
2014-Oct-27 15:33N 37°14' E 001°49'3115.5
2014-Oct-27 13:33N 37°05' E 001°12'2515.7
2014-Oct-27 12:00N 37°00' E 000°42'28915.7 090 / 181019.010.8 0.522.018.924.0
2014-Oct-26 17:33N 35°59' W 005°10'233 7.5
2014-Oct-25 10:22N 37°20' W 009°43'1113.0
2014-Oct-25 09:33N 37°30' W 009°46'1313.1
2014-Oct-25 08:33N 37°43' W 009°50'1413.9
2014-Oct-25 07:32N 37°57' W 009°54'1515.1
2014-Oct-25 06:33N 38°11' W 009°58'1515.0
2014-Oct-25 05:33N 38°26' W 010°01'17214.9
2014-Oct-24 18:00N 41°18' W 010°00'9015.0 020 / 111018.010.8 0.520.014.920.0
2014-Oct-24 12:00N 42°48' W 010°06'18515.4 220 / 91021.010.8 1.022.018.9
2014-Oct-24 00:00N 45°36' W 008°18'31914.2 230 / 91022.0 1.016.0 19.0
2014-Oct-23 01:33N 49°49' W 003°28'1616.4
2014-Oct-23 00:33N 49°56' W 003°05'1816.8
2014-Oct-22 23:30N 50°02' W 002°39'1516.2
2014-Oct-22 22:33N 50°06' W 002°16'1614.7
2014-Oct-22 21:30N 50°10' W 001°52'1812.8
2014-Oct-22 20:05N 50°15' W 001°25'2112.1
2014-Oct-22 18:21N 50°20' W 000°54'1313.6
2014-Oct-22 17:24N 50°24' W 000°34'1314.9
2014-Oct-22 16:34N 50°27' W 000°15'1616.1
2014-Oct-22 15:34N 50°33' E 000°09'1716.7
2014-Oct-22 14:34N 50°38' E 000°34'2216.3
2014-Oct-22 13:11N 50°50' E 001°03'915.1
2014-Oct-22 12:34N 50°56' E 001°14'1414.2
2014-Oct-22 11:33N 51°06' E 001°32'1514.6
2014-Oct-22 10:33N 51°16' E 001°48'1514.9
2014-Oct-22 09:34N 51°31' E 001°50'1716.7
2014-Oct-22 08:33N 51°48' E 001°43'8 8.5
2014-Oct-22 07:33N 51°45' E 001°31'1414.3
2014-Oct-22 06:33N 51°34' E 001°14'1514.8
2014-Oct-22 05:33N 51°29' E 000°52'1313.5
2014-Oct-22 04:34N 51°30' E 000°30'0 0.2
2014-Oct-22 03:33N 51°30' E 000°30'0 0.0
2014-Oct-22 02:32N 51°30' E 000°30'0 0.0
2014-Oct-22 01:32N 51°30' E 000°30'0 0.0
2014-Oct-22 00:32N 51°30' E 000°30'0 0.0
2014-Oct-21 23:32N 51°30' E 000°30'0 0.0
2014-Oct-21 22:32N 51°30' E 000°30'0 0.0
2014-Oct-21 21:32N 51°30' E 000°30'0 0.0
2014-Oct-21 20:32N 51°30' E 000°30'0 0.0
2014-Oct-21 19:32N 51°30' E 000°30'0 0.0
2014-Oct-21 18:32N 51°30' E 000°30'0 0.0
2014-Oct-21 17:32N 51°30' E 000°30'0 0.0
2014-Oct-21 16:32N 51°30' E 000°30'0 0.0
2014-Oct-21 15:32N 51°30' E 000°30'0 0.0
2014-Oct-21 14:32N 51°30' E 000°30'0 0.0
2014-Oct-21 13:32N 51°30' E 000°30'0 0.0
2014-Oct-21 12:32N 51°30' E 000°30'0 0.0
2014-Oct-21 11:32N 51°30' E 000°30'0 0.0
2014-Oct-21 10:32N 51°30' E 000°30'0 0.0
2014-Oct-21 09:32N 51°30' E 000°30'0 0.0
2014-Oct-21 08:32N 51°30' E 000°30'0 0.0
2014-Oct-21 07:32N 51°30' E 000°30'0 0.0
2014-Oct-21 06:29N 51°30' E 000°30'0 0.0
2014-Oct-21 05:32N 51°30' E 000°30'0 0.0
2014-Oct-21 04:32N 51°30' E 000°30'0 0.0
2014-Oct-21 03:32N 51°30' E 000°30'0 0.0
2014-Oct-21 02:32N 51°30' E 000°30'0 0.0
2014-Oct-21 01:32N 51°30' E 000°30'2 2.0
2014-Oct-21 00:33N 51°30' E 000°33'1010.3
2014-Oct-20 23:33N 51°29' E 000°50'1212.4
2014-Oct-20 22:33N 51°33' E 001°09'1515.4
2014-Oct-20 21:33N 51°43' E 001°28'1312.9
2014-Oct-20 20:34N 51°54' E 001°39'1 1.1
2014-Oct-20 19:33N 51°54' E 001°41'0 0.0
2014-Oct-20 18:33N 51°54' E 001°41'0 0.1
2014-Oct-20 17:33N 51°54' E 001°41'0 0.3
2014-Oct-20 16:33N 51°54' E 001°41'0 0.1
2014-Oct-20 15:33N 51°54' E 001°41'0 0.0
2014-Oct-20 14:33N 51°55' E 001°41'0 0.1
2014-Oct-20 13:33N 51°54' E 001°41'5 4.7
2014-Oct-20 12:33N 51°52' E 001°48'1313.1
2014-Oct-20 11:33N 51°39' E 001°50'1211.8
2014-Oct-20 10:33N 51°29' E 001°59'1211.7
2014-Oct-20 09:33N 51°22' E 002°14'1110.5
2014-Oct-20 08:32N 51°23' E 002°31'  
Track history (hours):
 
Tides and Currents Weather Stations Pressure Air Temp Water Temp Dewpoint Dewpoint Depression Visibility Wind Speed Wind Dir Waves Ship Positions

MSC Turchia

Last reported at 2014-Oct-30 08:08 UTC. Time now 2014-Oct-30 13:49 UTC.
Position N 36°28' E 014°28'.

Length 276 m; beam 40 m; draft 14 m.

Type: Ship (hazmat cat D). MMSI: 636091212.

Date/timePositionNaut miles runAvg speedWind from/ knotsBaromVisibWave heightAir tempDewpointWater temp
2014-Oct-30 08:08N 36°28' E 014°28'1017.0
2014-Oct-30 07:33N 36°31' E 014°17'1716.9
2014-Oct-30 06:33N 36°37' E 013°57'24315.8
2014-Oct-29 15:10N 38°42' E 009°34'915.7
2014-Oct-29 14:33N 38°49' E 009°26'1616.3
2014-Oct-29 13:33N 39°01' E 009°13'1212.4
2014-Oct-29 12:33N 39°12' E 009°05'1 0.8
2014-Oct-29 11:33N 39°13' E 009°04'0 0.0
2014-Oct-29 10:32N 39°13' E 009°04'0 0.0
2014-Oct-29 09:32N 39°13' E 009°04'0 0.0
2014-Oct-29 08:32N 39°13' E 009°04'0 0.0
2014-Oct-29 07:32N 39°13' E 009°04'0 0.0
2014-Oct-29 06:32N 39°13' E 009°04'0 0.0
2014-Oct-29 05:32N 39°13' E 009°04'0 0.0
2014-Oct-29 04:32N 39°13' E 009°04'0 0.0
2014-Oct-29 03:32N 39°13' E 009°04'0 0.0
2014-Oct-29 02:32N 39°13' E 009°04'0 0.0
2014-Oct-29 01:32N 39°13' E 009°04'0 0.0
2014-Oct-29 00:32N 39°13' E 009°04'0 0.0
2014-Oct-28 23:32N 39°13' E 009°04'0 0.0
2014-Oct-28 22:32N 39°13' E 009°04'0 0.0
2014-Oct-28 21:32N 39°13' E 009°04'0 0.0
2014-Oct-28 20:32N 39°13' E 009°04'0 0.0
2014-Oct-28 19:32N 39°13' E 009°04'0 0.0
2014-Oct-28 18:32N 39°13' E 009°04'0 0.0
2014-Oct-28 17:32N 39°13' E 009°04'4 3.8
2014-Oct-28 16:33N 39°09' E 009°06'1212.0
2014-Oct-28 15:33N 38°57' E 009°06'1414.2
2014-Oct-28 14:33N 38°47' E 008°53'1413.6
2014-Oct-28 13:33N 38°40' E 008°38'2214.4
2014-Oct-28 12:03N 38°35' E 008°11'30215.2
2014-Oct-27 16:08N 37°16' E 002°01'915.9
2014-Oct-27 15:33N 37°14' E 001°49'3115.5
2014-Oct-27 13:33N 37°05' E 001°12'2515.7
2014-Oct-27 12:00N 37°00' E 000°42'28915.7 090 / 181019.010.8 0.522.018.924.0
2014-Oct-26 17:33N 35°59' W 005°10'233 7.5
2014-Oct-25 10:22N 37°20' W 009°43'1113.0
2014-Oct-25 09:33N 37°30' W 009°46'1313.1
2014-Oct-25 08:33N 37°43' W 009°50'1413.9
2014-Oct-25 07:32N 37°57' W 009°54'1515.1
2014-Oct-25 06:33N 38°11' W 009°58'1515.0
2014-Oct-25 05:33N 38°26' W 010°01'17214.9
2014-Oct-24 18:00N 41°18' W 010°00'9015.0 020 / 111018.010.8 0.520.014.920.0
2014-Oct-24 12:00N 42°48' W 010°06'18515.4 220 / 91021.010.8 1.022.018.9
2014-Oct-24 00:00N 45°36' W 008°18'31914.2 230 / 91022.0 1.016.0 19.0
2014-Oct-23 01:33N 49°49' W 003°28'1616.4
2014-Oct-23 00:33N 49°56' W 003°05'1816.8
2014-Oct-22 23:30N 50°02' W 002°39'1516.2
2014-Oct-22 22:33N 50°06' W 002°16'1614.7
2014-Oct-22 21:30N 50°10' W 001°52'1812.8
2014-Oct-22 20:05N 50°15' W 001°25'2112.1
2014-Oct-22 18:21N 50°20' W 000°54'1313.6
2014-Oct-22 17:24N 50°24' W 000°34'1314.9
2014-Oct-22 16:34N 50°27' W 000°15'1616.1
2014-Oct-22 15:34N 50°33' E 000°09'1716.7
2014-Oct-22 14:34N 50°38' E 000°34'2216.3
2014-Oct-22 13:11N 50°50' E 001°03'915.1
2014-Oct-22 12:34N 50°56' E 001°14'1414.2
2014-Oct-22 11:33N 51°06' E 001°32'1514.6
2014-Oct-22 10:33N 51°16' E 001°48'1514.9
2014-Oct-22 09:34N 51°31' E 001°50'1716.7
2014-Oct-22 08:33N 51°48' E 001°43'8 8.5
2014-Oct-22 07:33N 51°45' E 001°31'1414.3
2014-Oct-22 06:33N 51°34' E 001°14'1514.8
2014-Oct-22 05:33N 51°29' E 000°52'1313.5
2014-Oct-22 04:34N 51°30' E 000°30'0 0.2
2014-Oct-22 03:33N 51°30' E 000°30'0 0.0
2014-Oct-22 02:32N 51°30' E 000°30'0 0.0
2014-Oct-22 01:32N 51°30' E 000°30'0 0.0
2014-Oct-22 00:32N 51°30' E 000°30'0 0.0
2014-Oct-21 23:32N 51°30' E 000°30'0 0.0
2014-Oct-21 22:32N 51°30' E 000°30'0 0.0
2014-Oct-21 21:32N 51°30' E 000°30'0 0.0
2014-Oct-21 20:32N 51°30' E 000°30'0 0.0
2014-Oct-21 19:32N 51°30' E 000°30'0 0.0
2014-Oct-21 18:32N 51°30' E 000°30'0 0.0
2014-Oct-21 17:32N 51°30' E 000°30'0 0.0
2014-Oct-21 16:32N 51°30' E 000°30'0 0.0
2014-Oct-21 15:32N 51°30' E 000°30'0 0.0
2014-Oct-21 14:32N 51°30' E 000°30'0 0.0
2014-Oct-21 13:32N 51°30' E 000°30'0 0.0
2014-Oct-21 12:32N 51°30' E 000°30'0 0.0
2014-Oct-21 11:32N 51°30' E 000°30'0 0.0
2014-Oct-21 10:32N 51°30' E 000°30'0 0.0
2014-Oct-21 09:32N 51°30' E 000°30'0 0.0
2014-Oct-21 08:32N 51°30' E 000°30'0 0.0
2014-Oct-21 07:32N 51°30' E 000°30'0 0.0
2014-Oct-21 06:29N 51°30' E 000°30'0 0.0
2014-Oct-21 05:32N 51°30' E 000°30'0 0.0
2014-Oct-21 04:32N 51°30' E 000°30'0 0.0
2014-Oct-21 03:32N 51°30' E 000°30'0 0.0
2014-Oct-21 02:32N 51°30' E 000°30'0 0.0
2014-Oct-21 01:32N 51°30' E 000°30'2 2.0
2014-Oct-21 00:33N 51°30' E 000°33'1010.3
2014-Oct-20 23:33N 51°29' E 000°50'1212.4
2014-Oct-20 22:33N 51°33' E 001°09'1515.4
2014-Oct-20 21:33N 51°43' E 001°28'1312.9
2014-Oct-20 20:34N 51°54' E 001°39'1 1.1
2014-Oct-20 19:33N 51°54' E 001°41'0 0.0
2014-Oct-20 18:33N 51°54' E 001°41'0 0.1
2014-Oct-20 17:33N 51°54' E 001°41'0 0.3
2014-Oct-20 16:33N 51°54' E 001°41'0 0.1
2014-Oct-20 15:33N 51°54' E 001°41'0 0.0
2014-Oct-20 14:33N 51°55' E 001°41'0 0.1
2014-Oct-20 13:33N 51°54' E 001°41'5 4.7
2014-Oct-20 12:33N 51°52' E 001°48'1313.1
2014-Oct-20 11:33N 51°39' E 001°50'1211.8
2014-Oct-20 10:33N 51°29' E 001°59'1211.7
2014-Oct-20 09:33N 51°22' E 002°14'1110.5
2014-Oct-20 08:32N 51°23' E 002°31'  

Dump ship's entire track history